Main page
METAR-TAF:

METAR-TAF

Airports :

Portsmouth International Airport at Pease

Portsmouth, New Hampshire, United States

latitude: 43-05N, longitude: 070-49W, elevation: 102 ft

Current weather observation

The report was made 52 minutes ago, at 07:56 UTC
Wind 5 mph from the West/Southwest
Temperature 30°F
Humidity 69%
Pressure 30.01 in. Hg
Visibility: 10 miles
Clear sky

METAR: KPSM 240756Z 24004KT 10SM CLR M01/M06 A3001 RMK AO2A SLP166 T10061062

Time: 03:48 (08:48 UTC)

Forecast

The report was made 3 hours and 28 minutes ago, at 05:20 UTC
Forecast valid from 24 at 06 UTC to 25 at 06 UTC
Wind 3 mph from the West/Southwest
Visibility: 6 miles
Few clouds at a height of 25000 ft

TAF: KPSM 240520Z 2406/2506 24003KT P6SM FEW250

Weather observations and forecasts of more than 4000 airports (METAR and TAF reports).

The available stations are represented by yellow and red dots on the map.

Hover mouse over dot to see the name of the station.

Then click to see weather observations and forecasts.

To change the map : click on the green buttons with a black cross to zoom in, on the green button with a dash to zoom out, or on the green arrows for adjacent maps.


METAR-TAF: